sensor_id;sensor_type;location;lat;lon;timestamp;P1;durP1;ratioP1;P2;durP2;ratioP2
10705;SDS011;5404;42.656;23.336;2023-03-03T00:00:58;7.15;;;4.70;;
10705;SDS011;5404;42.656;23.336;2023-03-03T00:03:24;5.57;;;3.97;;
10705;SDS011;5404;42.656;23.336;2023-03-03T00:05:51;9.65;;;5.32;;
10705;SDS011;5404;42.656;23.336;2023-03-03T00:08:18;8.15;;;4.80;;
10705;SDS011;5404;42.656;23.336;2023-03-03T00:10:44;6.97;;;5.28;;
10705;SDS011;5404;42.656;23.336;2023-03-03T00:13:14;6.57;;;4.20;;
10705;SDS011;5404;42.656;23.336;2023-03-03T00:15:46;7.68;;;5.05;;
10705;SDS011;5404;42.656;23.336;2023-03-03T00:18:16;8.05;;;4.90;;
10705;SDS011;5404;42.656;23.336;2023-03-03T00:20:53;8.27;;;5.30;;
10705;SDS011;5404;42.656;23.336;2023-03-03T00:23:28;6.72;;;4.57;;
10705;SDS011;5404;42.656;23.336;2023-03-03T00:25:58;8.65;;;4.95;;
10705;SDS011;5404;42.656;23.336;2023-03-03T00:28:28;7.63;;;5.40;;
10705;SDS011;5404;42.656;23.336;2023-03-03T00:30:58;9.60;;;5.90;;
10705;SDS011;5404;42.656;23.336;2023-03-03T00:33:32;7.30;;;5.18;;
10705;SDS011;5404;42.656;23.336;2023-03-03T00:38:40;13.63;;;6.20;;
10705;SDS011;5404;42.656;23.336;2023-03-03T00:41:14;9.48;;;6.28;;
10705;SDS011;5404;42.656;23.336;2023-03-03T00:43:53;9.88;;;5.15;;
10705;SDS011;5404;42.656;23.336;2023-03-03T00:46:20;10.27;;;6.93;;
10705;SDS011;5404;42.656;23.336;2023-03-03T00:48:48;9.77;;;6.72;;
10705;SDS011;5404;42.656;23.336;2023-03-03T00:53:49;10.75;;;6.10;;
10705;SDS011;5404;42.656;23.336;2023-03-03T00:56:15;11.07;;;7.72;;
10705;SDS011;5404;42.656;23.336;2023-03-03T00:58:40;10.32;;;6.80;;
10705;SDS011;5404;42.656;23.336;2023-03-03T01:01:08;9.40;;;6.18;;
10705;SDS011;5404;42.656;23.336;2023-03-03T01:03:34;9.73;;;6.47;;
10705;SDS011;5404;42.656;23.336;2023-03-03T01:05:59;9.70;;;6.57;;
10705;SDS011;5404;42.656;23.336;2023-03-03T01:08:24;11.10;;;6.85;;
10705;SDS011;5404;42.656;23.336;2023-03-03T01:10:52;9.80;;;6.63;;
10705;SDS011;5404;42.656;23.336;2023-03-03T01:13:21;10.60;;;6.65;;
10705;SDS011;5404;42.656;23.336;2023-03-03T01:15:50;10.73;;;6.03;;
10705;SDS011;5404;42.656;23.336;2023-03-03T01:18:17;10.70;;;7.00;;
10705;SDS011;5404;42.656;23.336;2023-03-03T01:20:43;9.15;;;6.10;;
10705;SDS011;5404;42.656;23.336;2023-03-03T01:23:09;7.88;;;5.82;;
10705;SDS011;5404;42.656;23.336;2023-03-03T01:25:34;10.27;;;6.38;;
10705;SDS011;5404;42.656;23.336;2023-03-03T01:28:00;9.20;;;6.00;;
10705;SDS011;5404;42.656;23.336;2023-03-03T01:30:26;10.43;;;5.88;;
10705;SDS011;5404;42.656;23.336;2023-03-03T01:32:52;12.05;;;6.80;;
10705;SDS011;5404;42.656;23.336;2023-03-03T01:35:17;8.55;;;6.32;;
10705;SDS011;5404;42.656;23.336;2023-03-03T01:37:43;10.32;;;7.00;;
10705;SDS011;5404;42.656;23.336;2023-03-03T01:40:19;7.72;;;5.63;;
10705;SDS011;5404;42.656;23.336;2023-03-03T01:42:50;10.05;;;6.63;;
10705;SDS011;5404;42.656;23.336;2023-03-03T01:45:23;11.02;;;6.65;;
10705;SDS011;5404;42.656;23.336;2023-03-03T01:47:53;11.23;;;6.75;;
10705;SDS011;5404;42.656;23.336;2023-03-03T01:53:17;12.77;;;6.60;;
10705;SDS011;5404;42.656;23.336;2023-03-03T01:55:45;11.88;;;7.03;;
10705;SDS011;5404;42.656;23.336;2023-03-03T01:58:20;9.70;;;6.55;;
10705;SDS011;5404;42.656;23.336;2023-03-03T02:00:48;17.05;;;6.78;;
10705;SDS011;5404;42.656;23.336;2023-03-03T02:03:18;12.25;;;6.65;;
10705;SDS011;5404;42.656;23.336;2023-03-03T02:05:45;10.90;;;6.72;;
10705;SDS011;5404;42.656;23.336;2023-03-03T02:08:11;10.85;;;5.68;;
10705;SDS011;5404;42.656;23.336;2023-03-03T02:10:43;10.55;;;5.95;;
10705;SDS011;5404;42.656;23.336;2023-03-03T02:13:10;10.02;;;6.63;;
10705;SDS011;5404;42.656;23.336;2023-03-03T02:15:36;10.77;;;5.75;;
10705;SDS011;5404;42.656;23.336;2023-03-03T02:18:05;8.95;;;5.60;;
10705;SDS011;5404;42.656;23.336;2023-03-03T02:23:32;10.27;;;6.30;;
10705;SDS011;5404;42.656;23.336;2023-03-03T02:28:32;12.15;;;6.85;;
10705;SDS011;5404;42.656;23.336;2023-03-03T02:33:25;9.10;;;6.22;;
10705;SDS011;5404;42.656;23.336;2023-03-03T02:35:52;9.98;;;6.40;;
10705;SDS011;5404;42.656;23.336;2023-03-03T02:38:24;12.35;;;6.72;;
10705;SDS011;5404;42.656;23.336;2023-03-03T02:43:25;10.93;;;6.90;;
10705;SDS011;5404;42.656;23.336;2023-03-03T02:45:57;10.38;;;7.00;;
10705;SDS011;5404;42.656;23.336;2023-03-03T02:48:22;12.23;;;6.50;;
10705;SDS011;5404;42.656;23.336;2023-03-03T02:50:49;10.88;;;6.43;;
10705;SDS011;5404;42.656;23.336;2023-03-03T02:53:16;11.18;;;7.28;;
10705;SDS011;5404;42.656;23.336;2023-03-03T02:55:41;9.55;;;6.95;;
10705;SDS011;5404;42.656;23.336;2023-03-03T02:58:07;13.73;;;7.68;;
10705;SDS011;5404;42.656;23.336;2023-03-03T03:00:33;12.80;;;8.25;;
10705;SDS011;5404;42.656;23.336;2023-03-03T03:02:59;12.68;;;7.18;;
10705;SDS011;5404;42.656;23.336;2023-03-03T03:05:26;12.68;;;8.23;;
10705;SDS011;5404;42.656;23.336;2023-03-03T03:07:51;15.23;;;8.77;;
10705;SDS011;5404;42.656;23.336;2023-03-03T03:10:17;15.00;;;8.80;;
10705;SDS011;5404;42.656;23.336;2023-03-03T03:12:42;15.07;;;8.35;;
10705;SDS011;5404;42.656;23.336;2023-03-03T03:15:09;16.77;;;8.65;;
10705;SDS011;5404;42.656;23.336;2023-03-03T03:17:37;12.55;;;8.45;;
10705;SDS011;5404;42.656;23.336;2023-03-03T03:20:03;14.07;;;7.82;;
10705;SDS011;5404;42.656;23.336;2023-03-03T03:22:28;13.35;;;7.95;;
10705;SDS011;5404;42.656;23.336;2023-03-03T03:24:54;16.45;;;9.57;;
10705;SDS011;5404;42.656;23.336;2023-03-03T03:27:21;14.02;;;8.75;;
10705;SDS011;5404;42.656;23.336;2023-03-03T03:29:47;16.23;;;9.45;;
10705;SDS011;5404;42.656;23.336;2023-03-03T03:32:13;17.50;;;9.90;;
10705;SDS011;5404;42.656;23.336;2023-03-03T03:34:38;16.30;;;9.27;;
10705;SDS011;5404;42.656;23.336;2023-03-03T03:37:04;14.40;;;9.02;;
10705;SDS011;5404;42.656;23.336;2023-03-03T03:39:30;18.73;;;9.80;;
10705;SDS011;5404;42.656;23.336;2023-03-03T03:41:56;14.23;;;9.27;;
10705;SDS011;5404;42.656;23.336;2023-03-03T03:44:21;16.08;;;9.35;;
10705;SDS011;5404;42.656;23.336;2023-03-03T03:46:48;16.65;;;9.35;;
10705;SDS011;5404;42.656;23.336;2023-03-03T03:49:13;18.73;;;10.15;;
10705;SDS011;5404;42.656;23.336;2023-03-03T03:51:38;19.00;;;9.77;;
10705;SDS011;5404;42.656;23.336;2023-03-03T03:54:05;25.13;;;9.98;;
10705;SDS011;5404;42.656;23.336;2023-03-03T03:56:32;15.95;;;9.77;;
10705;SDS011;5404;42.656;23.336;2023-03-03T03:58:58;21.83;;;10.65;;
10705;SDS011;5404;42.656;23.336;2023-03-03T04:01:25;16.83;;;10.05;;
10705;SDS011;5404;42.656;23.336;2023-03-03T04:03:50;20.63;;;10.45;;
10705;SDS011;5404;42.656;23.336;2023-03-03T04:06:17;17.52;;;10.30;;
10705;SDS011;5404;42.656;23.336;2023-03-03T04:08:42;18.85;;;10.13;;
10705;SDS011;5404;42.656;23.336;2023-03-03T04:11:09;16.42;;;9.88;;
10705;SDS011;5404;42.656;23.336;2023-03-03T04:13:36;19.77;;;11.17;;
10705;SDS011;5404;42.656;23.336;2023-03-03T04:16:01;21.05;;;11.25;;
10705;SDS011;5404;42.656;23.336;2023-03-03T04:18:27;19.95;;;10.93;;
10705;SDS011;5404;42.656;23.336;2023-03-03T04:20:54;21.27;;;11.13;;
10705;SDS011;5404;42.656;23.336;2023-03-03T04:23:20;18.58;;;11.10;;
10705;SDS011;5404;42.656;23.336;2023-03-03T04:25:46;24.20;;;11.15;;
10705;SDS011;5404;42.656;23.336;2023-03-03T04:28:12;18.85;;;10.90;;
10705;SDS011;5404;42.656;23.336;2023-03-03T04:30:38;22.80;;;12.05;;
10705;SDS011;5404;42.656;23.336;2023-03-03T04:33:04;24.95;;;11.73;;
10705;SDS011;5404;42.656;23.336;2023-03-03T04:35:29;20.92;;;10.95;;
10705;SDS011;5404;42.656;23.336;2023-03-03T04:37:55;20.15;;;11.15;;
10705;SDS011;5404;42.656;23.336;2023-03-03T04:40:20;19.40;;;10.90;;
10705;SDS011;5404;42.656;23.336;2023-03-03T04:42:45;19.63;;;10.73;;
10705;SDS011;5404;42.656;23.336;2023-03-03T04:45:11;23.08;;;12.68;;
10705;SDS011;5404;42.656;23.336;2023-03-03T04:47:36;19.48;;;11.30;;
10705;SDS011;5404;42.656;23.336;2023-03-03T04:50:03;19.42;;;10.85;;
10705;SDS011;5404;42.656;23.336;2023-03-03T04:52:29;21.25;;;12.20;;
10705;SDS011;5404;42.656;23.336;2023-03-03T04:54:54;25.08;;;11.70;;
10705;SDS011;5404;42.656;23.336;2023-03-03T04:57:20;22.55;;;11.75;;
10705;SDS011;5404;42.656;23.336;2023-03-03T04:59:45;20.77;;;11.70;;
10705;SDS011;5404;42.656;23.336;2023-03-03T05:02:11;24.00;;;13.18;;
10705;SDS011;5404;42.656;23.336;2023-03-03T05:04:37;23.58;;;12.57;;
10705;SDS011;5404;42.656;23.336;2023-03-03T05:07:02;26.35;;;12.70;;
10705;SDS011;5404;42.656;23.336;2023-03-03T05:09:28;25.42;;;13.27;;
10705;SDS011;5404;42.656;23.336;2023-03-03T05:11:55;25.42;;;13.57;;
10705;SDS011;5404;42.656;23.336;2023-03-03T05:14:20;28.15;;;13.90;;
10705;SDS011;5404;42.656;23.336;2023-03-03T05:16:46;26.42;;;14.18;;
10705;SDS011;5404;42.656;23.336;2023-03-03T05:19:13;36.75;;;16.50;;
10705;SDS011;5404;42.656;23.336;2023-03-03T05:21:39;32.35;;;15.63;;
10705;SDS011;5404;42.656;23.336;2023-03-03T05:24:06;28.23;;;14.00;;
10705;SDS011;5404;42.656;23.336;2023-03-03T05:26:36;25.45;;;14.15;;
10705;SDS011;5404;42.656;23.336;2023-03-03T05:29:01;20.10;;;12.45;;
10705;SDS011;5404;42.656;23.336;2023-03-03T05:31:27;27.52;;;14.50;;
10705;SDS011;5404;42.656;23.336;2023-03-03T05:33:54;28.40;;;13.57;;
10705;SDS011;5404;42.656;23.336;2023-03-03T05:36:21;26.75;;;13.18;;
10705;SDS011;5404;42.656;23.336;2023-03-03T05:38:47;27.48;;;13.55;;
10705;SDS011;5404;42.656;23.336;2023-03-03T05:41:13;28.25;;;12.98;;
10705;SDS011;5404;42.656;23.336;2023-03-03T05:43:39;22.38;;;12.35;;
10705;SDS011;5404;42.656;23.336;2023-03-03T05:46:05;22.95;;;13.35;;
10705;SDS011;5404;42.656;23.336;2023-03-03T05:48:31;28.98;;;13.82;;
10705;SDS011;5404;42.656;23.336;2023-03-03T05:50:57;27.33;;;13.82;;
10705;SDS011;5404;42.656;23.336;2023-03-03T05:53:24;27.55;;;13.68;;
10705;SDS011;5404;42.656;23.336;2023-03-03T05:55:50;28.27;;;14.75;;
10705;SDS011;5404;42.656;23.336;2023-03-03T05:58:16;26.52;;;14.32;;
10705;SDS011;5404;42.656;23.336;2023-03-03T06:00:42;28.58;;;14.63;;
10705;SDS011;5404;42.656;23.336;2023-03-03T06:03:07;33.42;;;14.52;;
10705;SDS011;5404;42.656;23.336;2023-03-03T06:05:32;34.55;;;16.75;;
10705;SDS011;5404;42.656;23.336;2023-03-03T06:07:58;43.63;;;15.13;;
10705;SDS011;5404;42.656;23.336;2023-03-03T06:10:24;34.08;;;15.48;;
10705;SDS011;5404;42.656;23.336;2023-03-03T06:12:49;28.10;;;13.48;;
10705;SDS011;5404;42.656;23.336;2023-03-03T06:15:16;29.08;;;13.65;;
10705;SDS011;5404;42.656;23.336;2023-03-03T06:17:41;35.25;;;14.57;;
10705;SDS011;5404;42.656;23.336;2023-03-03T06:20:07;27.30;;;14.68;;
10705;SDS011;5404;42.656;23.336;2023-03-03T06:22:33;28.17;;;13.65;;
10705;SDS011;5404;42.656;23.336;2023-03-03T06:24:59;30.48;;;15.25;;
10705;SDS011;5404;42.656;23.336;2023-03-03T06:27:25;37.40;;;14.38;;
10705;SDS011;5404;42.656;23.336;2023-03-03T06:29:50;26.02;;;14.65;;
10705;SDS011;5404;42.656;23.336;2023-03-03T06:32:16;33.40;;;14.85;;
10705;SDS011;5404;42.656;23.336;2023-03-03T06:34:41;26.45;;;14.73;;
10705;SDS011;5404;42.656;23.336;2023-03-03T06:37:07;38.42;;;17.17;;
10705;SDS011;5404;42.656;23.336;2023-03-03T06:39:32;29.48;;;13.95;;
10705;SDS011;5404;42.656;23.336;2023-03-03T06:41:58;33.95;;;13.80;;
10705;SDS011;5404;42.656;23.336;2023-03-03T06:44:23;32.33;;;14.68;;
10705;SDS011;5404;42.656;23.336;2023-03-03T06:46:48;25.65;;;14.27;;
10705;SDS011;5404;42.656;23.336;2023-03-03T06:49:14;32.22;;;13.52;;
10705;SDS011;5404;42.656;23.336;2023-03-03T06:51:41;25.02;;;14.05;;
10705;SDS011;5404;42.656;23.336;2023-03-03T06:56:36;27.58;;;13.45;;
10705;SDS011;5404;42.656;23.336;2023-03-03T06:59:05;24.58;;;12.95;;
10705;SDS011;5404;42.656;23.336;2023-03-03T07:01:39;24.42;;;12.88;;
10705;SDS011;5404;42.656;23.336;2023-03-03T07:06:52;23.65;;;11.27;;
10705;SDS011;5404;42.656;23.336;2023-03-03T07:09:20;21.42;;;11.32;;
10705;SDS011;5404;42.656;23.336;2023-03-03T07:11:48;21.42;;;10.80;;
10705;SDS011;5404;42.656;23.336;2023-03-03T07:14:16;19.73;;;10.85;;
10705;SDS011;5404;42.656;23.336;2023-03-03T07:16:43;20.55;;;10.88;;
10705;SDS011;5404;42.656;23.336;2023-03-03T07:19:13;20.58;;;11.10;;
10705;SDS011;5404;42.656;23.336;2023-03-03T07:21:44;17.58;;;10.63;;
10705;SDS011;5404;42.656;23.336;2023-03-03T07:26:42;18.13;;;10.25;;
10705;SDS011;5404;42.656;23.336;2023-03-03T07:31:44;18.23;;;10.48;;
10705;SDS011;5404;42.656;23.336;2023-03-03T07:34:22;24.13;;;11.00;;
10705;SDS011;5404;42.656;23.336;2023-03-03T07:37:02;18.30;;;10.13;;
10705;SDS011;5404;42.656;23.336;2023-03-03T07:39:38;21.98;;;10.95;;
10705;SDS011;5404;42.656;23.336;2023-03-03T07:42:23;20.77;;;9.93;;
10705;SDS011;5404;42.656;23.336;2023-03-03T07:45:01;19.58;;;10.77;;
10705;SDS011;5404;42.656;23.336;2023-03-03T07:47:34;20.90;;;10.77;;
10705;SDS011;5404;42.656;23.336;2023-03-03T07:50:34;18.20;;;10.30;;
10705;SDS011;5404;42.656;23.336;2023-03-03T07:52:55;18.08;;;10.25;;
10705;SDS011;5404;42.656;23.336;2023-03-03T07:58:46;17.85;;;10.05;;
10705;SDS011;5404;42.656;23.336;2023-03-03T08:03:34;19.40;;;10.52;;
10705;SDS011;5404;42.656;23.336;2023-03-03T08:06:00;19.08;;;10.82;;
10705;SDS011;5404;42.656;23.336;2023-03-03T08:08:48;17.23;;;9.53;;
10705;SDS011;5404;42.656;23.336;2023-03-03T08:11:13;16.23;;;10.05;;
10705;SDS011;5404;42.656;23.336;2023-03-03T08:13:40;18.23;;;10.70;;
10705;SDS011;5404;42.656;23.336;2023-03-03T08:18:43;22.67;;;11.60;;
10705;SDS011;5404;42.656;23.336;2023-03-03T08:21:24;20.20;;;11.35;;
10705;SDS011;5404;42.656;23.336;2023-03-03T08:23:51;24.20;;;10.90;;
10705;SDS011;5404;42.656;23.336;2023-03-03T08:26:21;17.75;;;10.55;;
10705;SDS011;5404;42.656;23.336;2023-03-03T08:28:47;19.92;;;11.30;;
10705;SDS011;5404;42.656;23.336;2023-03-03T08:31:15;19.05;;;12.10;;
10705;SDS011;5404;42.656;23.336;2023-03-03T08:33:41;23.95;;;12.80;;
10705;SDS011;5404;42.656;23.336;2023-03-03T08:36:08;21.05;;;11.13;;
10705;SDS011;5404;42.656;23.336;2023-03-03T08:38:34;22.42;;;12.40;;
10705;SDS011;5404;42.656;23.336;2023-03-03T08:41:01;24.23;;;12.30;;
10705;SDS011;5404;42.656;23.336;2023-03-03T08:43:26;28.48;;;12.57;;
10705;SDS011;5404;42.656;23.336;2023-03-03T08:45:53;25.40;;;13.90;;
10705;SDS011;5404;42.656;23.336;2023-03-03T08:48:22;25.63;;;13.77;;
10705;SDS011;5404;42.656;23.336;2023-03-03T08:50:48;22.35;;;12.98;;
10705;SDS011;5404;42.656;23.336;2023-03-03T08:53:13;20.52;;;11.65;;
10705;SDS011;5404;42.656;23.336;2023-03-03T08:55:40;22.60;;;12.75;;
10705;SDS011;5404;42.656;23.336;2023-03-03T08:58:06;29.65;;;15.55;;
10705;SDS011;5404;42.656;23.336;2023-03-03T09:00:32;23.70;;;12.73;;
10705;SDS011;5404;42.656;23.336;2023-03-03T09:02:58;20.67;;;11.13;;
10705;SDS011;5404;42.656;23.336;2023-03-03T09:05:25;25.13;;;13.48;;
10705;SDS011;5404;42.656;23.336;2023-03-03T09:07:51;23.58;;;12.75;;
10705;SDS011;5404;42.656;23.336;2023-03-03T09:10:19;20.92;;;12.18;;
10705;SDS011;5404;42.656;23.336;2023-03-03T09:12:51;23.17;;;12.02;;
10705;SDS011;5404;42.656;23.336;2023-03-03T09:15:28;22.92;;;12.40;;
10705;SDS011;5404;42.656;23.336;2023-03-03T09:17:59;21.15;;;11.48;;
10705;SDS011;5404;42.656;23.336;2023-03-03T09:20:47;19.75;;;10.63;;
10705;SDS011;5404;42.656;23.336;2023-03-03T09:23:30;22.77;;;11.85;;
10705;SDS011;5404;42.656;23.336;2023-03-03T09:28:35;21.45;;;11.55;;
10705;SDS011;5404;42.656;23.336;2023-03-03T09:31:02;26.33;;;12.85;;
10705;SDS011;5404;42.656;23.336;2023-03-03T09:36:25;22.95;;;11.05;;
10705;SDS011;5404;42.656;23.336;2023-03-03T09:38:54;17.08;;;10.13;;
10705;SDS011;5404;42.656;23.336;2023-03-03T09:52:51;27.33;;;12.75;;
10705;SDS011;5404;42.656;23.336;2023-03-03T09:55:43;23.08;;;12.25;;
10705;SDS011;5404;42.656;23.336;2023-03-03T09:58:48;23.75;;;12.95;;
10705;SDS011;5404;42.656;23.336;2023-03-03T10:04:33;21.02;;;12.05;;
10705;SDS011;5404;42.656;23.336;2023-03-03T10:12:57;25.90;;;13.45;;
10705;SDS011;5404;42.656;23.336;2023-03-03T10:56:21;41.17;;;18.27;;
10705;SDS011;5404;42.656;23.336;2023-03-03T11:09:55;20.85;;;12.88;;
10705;SDS011;5404;42.656;23.336;2023-03-03T11:18:00;23.05;;;13.38;;
10705;SDS011;5404;42.656;23.336;2023-03-03T11:20:58;24.42;;;15.13;;
10705;SDS011;5404;42.656;23.336;2023-03-03T11:32:32;32.65;;;17.55;;
10705;SDS011;5404;42.656;23.336;2023-03-03T11:35:15;29.88;;;18.23;;
10705;SDS011;5404;42.656;23.336;2023-03-03T11:40:31;35.40;;;19.42;;
10705;SDS011;5404;42.656;23.336;2023-03-03T11:45:52;33.78;;;19.48;;
10705;SDS011;5404;42.656;23.336;2023-03-03T11:48:57;35.67;;;20.48;;
10705;SDS011;5404;42.656;23.336;2023-03-03T11:52:09;42.95;;;21.85;;
10705;SDS011;5404;42.656;23.336;2023-03-03T11:54:37;36.80;;;21.73;;
10705;SDS011;5404;42.656;23.336;2023-03-03T12:05:43;47.50;;;26.27;;
10705;SDS011;5404;42.656;23.336;2023-03-03T12:08:21;48.80;;;27.88;;
10705;SDS011;5404;42.656;23.336;2023-03-03T12:10:50;55.05;;;30.17;;
10705;SDS011;5404;42.656;23.336;2023-03-03T12:21:57;35.38;;;21.35;;
10705;SDS011;5404;42.656;23.336;2023-03-03T12:24:50;38.78;;;22.55;;
10705;SDS011;5404;42.656;23.336;2023-03-03T12:33:19;40.78;;;23.50;;
10705;SDS011;5404;42.656;23.336;2023-03-03T12:36:04;40.83;;;22.25;;
10705;SDS011;5404;42.656;23.336;2023-03-03T12:56:34;37.97;;;21.25;;
10705;SDS011;5404;42.656;23.336;2023-03-03T13:14:55;34.60;;;19.80;;
10705;SDS011;5404;42.656;23.336;2023-03-03T13:17:27;30.15;;;17.90;;
10705;SDS011;5404;42.656;23.336;2023-03-03T13:20:02;26.67;;;16.63;;
10705;SDS011;5404;42.656;23.336;2023-03-03T13:22:46;23.48;;;14.82;;
10705;SDS011;5404;42.656;23.336;2023-03-03T13:25:33;24.67;;;15.95;;
10705;SDS011;5404;42.656;23.336;2023-03-03T13:28:13;20.13;;;13.20;;
10705;SDS011;5404;42.656;23.336;2023-03-03T13:31:07;22.95;;;12.73;;
10705;SDS011;5404;42.656;23.336;2023-03-03T13:33:49;25.30;;;13.50;;
10705;SDS011;5404;42.656;23.336;2023-03-03T13:36:22;25.58;;;13.77;;
10705;SDS011;5404;42.656;23.336;2023-03-03T13:38:52;22.00;;;13.77;;
10705;SDS011;5404;42.656;23.336;2023-03-03T13:44:21;19.70;;;12.48;;
10705;SDS011;5404;42.656;23.336;2023-03-03T13:52:33;21.20;;;13.15;;
10705;SDS011;5404;42.656;23.336;2023-03-03T13:57:56;23.25;;;13.35;;
10705;SDS011;5404;42.656;23.336;2023-03-03T14:03:25;22.73;;;14.15;;
10705;SDS011;5404;42.656;23.336;2023-03-03T14:06:01;21.05;;;13.65;;
10705;SDS011;5404;42.656;23.336;2023-03-03T14:11:16;22.83;;;14.25;;
10705;SDS011;5404;42.656;23.336;2023-03-03T14:18:56;25.85;;;14.73;;
10705;SDS011;5404;42.656;23.336;2023-03-03T14:21:44;26.13;;;15.88;;
10705;SDS011;5404;42.656;23.336;2023-03-03T14:24:19;22.10;;;14.30;;
10705;SDS011;5404;42.656;23.336;2023-03-03T14:31:44;29.52;;;14.23;;
10705;SDS011;5404;42.656;23.336;2023-03-03T14:36:37;23.92;;;14.32;;
10705;SDS011;5404;42.656;23.336;2023-03-03T14:41:58;26.65;;;16.30;;
10705;SDS011;5404;42.656;23.336;2023-03-03T14:44:27;23.85;;;16.83;;
10705;SDS011;5404;42.656;23.336;2023-03-03T14:49:33;20.00;;;13.65;;
10705;SDS011;5404;42.656;23.336;2023-03-03T14:52:17;27.55;;;15.65;;
10705;SDS011;5404;42.656;23.336;2023-03-03T14:54:49;25.33;;;15.82;;
10705;SDS011;5404;42.656;23.336;2023-03-03T15:02:37;24.35;;;15.10;;
10705;SDS011;5404;42.656;23.336;2023-03-03T15:10:43;23.52;;;15.73;;
10705;SDS011;5404;42.656;23.336;2023-03-03T15:16:03;21.70;;;13.32;;
10705;SDS011;5404;42.656;23.336;2023-03-03T15:18:35;21.55;;;12.65;;
10705;SDS011;5404;42.656;23.336;2023-03-03T15:21:30;21.20;;;14.00;;
10705;SDS011;5404;42.656;23.336;2023-03-03T15:24:05;27.27;;;15.27;;
10705;SDS011;5404;42.656;23.336;2023-03-03T15:37:37;30.02;;;19.77;;
10705;SDS011;5404;42.656;23.336;2023-03-03T15:40:26;29.35;;;19.27;;
10705;SDS011;5404;42.656;23.336;2023-03-03T15:49:06;27.13;;;17.13;;
10705;SDS011;5404;42.656;23.336;2023-03-03T15:56:58;21.17;;;14.38;;
10705;SDS011;5404;42.656;23.336;2023-03-03T16:02:43;21.60;;;13.90;;
10705;SDS011;5404;42.656;23.336;2023-03-03T16:08:15;52.20;;;21.50;;
10705;SDS011;5404;42.656;23.336;2023-03-03T16:10:54;24.52;;;14.85;;
10705;SDS011;5404;42.656;23.336;2023-03-03T16:14:06;18.75;;;13.55;;
10705;SDS011;5404;42.656;23.336;2023-03-03T16:16:45;21.65;;;13.93;;
10705;SDS011;5404;42.656;23.336;2023-03-03T16:22:39;24.80;;;14.13;;
10705;SDS011;5404;42.656;23.336;2023-03-03T16:25:30;21.90;;;14.30;;
10705;SDS011;5404;42.656;23.336;2023-03-03T16:34:13;24.08;;;14.75;;
10705;SDS011;5404;42.656;23.336;2023-03-03T16:48:12;35.90;;;23.40;;
10705;SDS011;5404;42.656;23.336;2023-03-03T16:53:47;21.83;;;13.23;;
10705;SDS011;5404;42.656;23.336;2023-03-03T16:56:20;20.65;;;13.50;;
10705;SDS011;5404;42.656;23.336;2023-03-03T17:04:48;24.55;;;14.77;;
10705;SDS011;5404;42.656;23.336;2023-03-03T17:06:58;24.80;;;14.88;;
10705;SDS011;5404;42.656;23.336;2023-03-03T17:09:53;23.17;;;15.07;;
10705;SDS011;5404;42.656;23.336;2023-03-03T17:12:53;24.90;;;14.73;;
10705;SDS011;5404;42.656;23.336;2023-03-03T17:21:53;25.50;;;15.30;;
10705;SDS011;5404;42.656;23.336;2023-03-03T17:24:54;21.83;;;13.80;;
10705;SDS011;5404;42.656;23.336;2023-03-03T17:28:00;27.08;;;16.50;;
10705;SDS011;5404;42.656;23.336;2023-03-03T17:30:52;37.00;;;20.70;;
10705;SDS011;5404;42.656;23.336;2023-03-03T17:36:21;25.52;;;16.23;;
10705;SDS011;5404;42.656;23.336;2023-03-03T17:44:33;27.05;;;16.90;;
10705;SDS011;5404;42.656;23.336;2023-03-03T17:56:19;31.67;;;18.90;;
10705;SDS011;5404;42.656;23.336;2023-03-03T18:04:53;31.98;;;18.58;;
10705;SDS011;5404;42.656;23.336;2023-03-03T18:08:23;33.38;;;19.73;;
10705;SDS011;5404;42.656;23.336;2023-03-03T18:13:50;32.92;;;19.45;;
10705;SDS011;5404;42.656;23.336;2023-03-03T18:16:28;34.05;;;19.05;;
10705;SDS011;5404;42.656;23.336;2023-03-03T18:25:17;32.42;;;18.27;;
10705;SDS011;5404;42.656;23.336;2023-03-03T18:27:47;31.17;;;18.33;;
10705;SDS011;5404;42.656;23.336;2023-03-03T18:36:08;28.13;;;15.40;;
10705;SDS011;5404;42.656;23.336;2023-03-03T18:38:59;26.10;;;16.10;;
10705;SDS011;5404;42.656;23.336;2023-03-03T18:41:28;27.15;;;15.07;;
10705;SDS011;5404;42.656;23.336;2023-03-03T18:43:58;27.95;;;14.98;;
10705;SDS011;5404;42.656;23.336;2023-03-03T18:46:45;30.80;;;17.92;;
10705;SDS011;5404;42.656;23.336;2023-03-03T18:49:12;58.78;;;29.58;;
10705;SDS011;5404;42.656;23.336;2023-03-03T19:04:38;23.20;;;14.55;;
10705;SDS011;5404;42.656;23.336;2023-03-03T19:07:19;23.10;;;13.57;;
10705;SDS011;5404;42.656;23.336;2023-03-03T19:09:52;25.33;;;15.40;;
10705;SDS011;5404;42.656;23.336;2023-03-03T19:20:39;24.33;;;13.98;;
10705;SDS011;5404;42.656;23.336;2023-03-03T19:23:11;23.98;;;14.23;;
10705;SDS011;5404;42.656;23.336;2023-03-03T19:34:37;28.77;;;14.43;;
10705;SDS011;5404;42.656;23.336;2023-03-03T19:46:18;28.17;;;15.20;;
10705;SDS011;5404;42.656;23.336;2023-03-03T19:51:13;26.73;;;14.70;;
10705;SDS011;5404;42.656;23.336;2023-03-03T19:56:57;23.17;;;13.95;;
10705;SDS011;5404;42.656;23.336;2023-03-03T19:59:39;24.92;;;13.02;;
10705;SDS011;5404;42.656;23.336;2023-03-03T20:02:37;26.30;;;14.23;;
10705;SDS011;5404;42.656;23.336;2023-03-03T20:08:17;26.30;;;15.48;;
10705;SDS011;5404;42.656;23.336;2023-03-03T20:10:59;25.10;;;14.35;;
10705;SDS011;5404;42.656;23.336;2023-03-03T20:16:23;39.05;;;24.25;;
10705;SDS011;5404;42.656;23.336;2023-03-03T20:22:10;35.40;;;17.77;;
10705;SDS011;5404;42.656;23.336;2023-03-03T20:27:39;41.47;;;24.17;;
10705;SDS011;5404;42.656;23.336;2023-03-03T20:33:16;42.55;;;24.40;;
10705;SDS011;5404;42.656;23.336;2023-03-03T20:42:30;37.75;;;21.63;;
10705;SDS011;5404;42.656;23.336;2023-03-03T20:47:37;40.78;;;20.13;;
10705;SDS011;5404;42.656;23.336;2023-03-03T20:54:06;53.85;;;22.48;;
10705;SDS011;5404;42.656;23.336;2023-03-03T21:04:31;31.35;;;18.13;;
10705;SDS011;5404;42.656;23.336;2023-03-03T21:07:01;21.42;;;13.98;;
10705;SDS011;5404;42.656;23.336;2023-03-03T21:09:35;24.77;;;13.68;;
10705;SDS011;5404;42.656;23.336;2023-03-03T21:12:09;22.05;;;12.55;;
10705;SDS011;5404;42.656;23.336;2023-03-03T21:15:03;27.73;;;13.23;;
10705;SDS011;5404;42.656;23.336;2023-03-03T21:17:35;20.60;;;11.43;;
10705;SDS011;5404;42.656;23.336;2023-03-03T21:20:25;16.38;;;11.57;;
10705;SDS011;5404;42.656;23.336;2023-03-03T21:22:56;18.55;;;11.93;;
10705;SDS011;5404;42.656;23.336;2023-03-03T21:28:18;21.23;;;11.70;;
10705;SDS011;5404;42.656;23.336;2023-03-03T21:33:44;21.20;;;12.40;;
10705;SDS011;5404;42.656;23.336;2023-03-03T21:36:21;24.80;;;13.18;;
10705;SDS011;5404;42.656;23.336;2023-03-03T21:38:56;21.13;;;13.35;;
10705;SDS011;5404;42.656;23.336;2023-03-03T21:41:22;20.73;;;13.02;;
10705;SDS011;5404;42.656;23.336;2023-03-03T21:43:49;23.35;;;13.45;;
10705;SDS011;5404;42.656;23.336;2023-03-03T21:46:19;20.67;;;12.32;;
10705;SDS011;5404;42.656;23.336;2023-03-03T21:48:47;23.83;;;13.35;;
10705;SDS011;5404;42.656;23.336;2023-03-03T21:51:13;21.10;;;13.63;;
10705;SDS011;5404;42.656;23.336;2023-03-03T21:53:42;22.33;;;13.45;;
10705;SDS011;5404;42.656;23.336;2023-03-03T21:56:09;23.70;;;14.10;;
10705;SDS011;5404;42.656;23.336;2023-03-03T21:58:35;22.90;;;14.18;;
10705;SDS011;5404;42.656;23.336;2023-03-03T22:01:02;24.77;;;14.20;;